sensor_id;sensor_type;location;lat;lon;timestamp;pressure;altitude;pressure_sealevel;temperature;humidity
70458;BME280;57919;56.194;95.716;2023-06-24T00:00:44;98628.16;;;20.16;56.14
70458;BME280;57919;56.194;95.716;2023-06-24T00:10:47;98611.69;;;21.20;53.96
70458;BME280;57919;56.194;95.716;2023-06-24T00:20:48;98618.22;;;21.70;50.86
70458;BME280;57919;56.194;95.716;2023-06-24T00:30:50;98629.47;;;21.17;51.71
70458;BME280;57919;56.194;95.716;2023-06-24T00:40:53;98616.91;;;22.79;48.75
70458;BME280;57919;56.194;95.716;2023-06-24T00:50:55;98616.78;;;23.29;47.65
70458;BME280;57919;56.194;95.716;2023-06-24T01:01:02;98620.72;;;23.03;46.86
70458;BME280;57919;56.194;95.716;2023-06-24T01:11:04;98616.59;;;24.32;44.95
70458;BME280;57919;56.194;95.716;2023-06-24T01:21:14;98630.44;;;25.65;42.86
70458;BME280;57919;56.194;95.716;2023-06-24T01:41:31;98620.22;;;26.78;40.16
70458;BME280;57919;56.194;95.716;2023-06-24T01:51:35;98623.47;;;27.30;39.07
70458;BME280;57919;56.194;95.716;2023-06-24T02:01:38;98609.09;;;28.09;37.36
70458;BME280;57919;56.194;95.716;2023-06-24T02:11:41;98606.63;;;27.37;36.55
70458;BME280;57919;56.194;95.716;2023-06-24T02:21:44;98602.09;;;26.37;37.90
70458;BME280;57919;56.194;95.716;2023-06-24T02:31:46;98600.00;;;26.44;37.07
70458;BME280;57919;56.194;95.716;2023-06-24T02:41:48;98587.19;;;26.10;36.16
70458;BME280;57919;56.194;95.716;2023-06-24T02:51:51;98586.19;;;27.48;33.41
70458;BME280;57919;56.194;95.716;2023-06-24T03:01:53;98586.00;;;27.33;32.66
70458;BME280;57919;56.194;95.716;2023-06-24T03:11:56;98577.00;;;27.48;30.87
70458;BME280;57919;56.194;95.716;2023-06-24T03:22:08;98555.53;;;29.61;29.33
70458;BME280;57919;56.194;95.716;2023-06-24T03:32:11;98557.56;;;30.01;28.76
70458;BME280;57919;56.194;95.716;2023-06-24T03:42:13;98553.69;;;30.32;27.11
70458;BME280;57919;56.194;95.716;2023-06-24T03:52:16;98546.69;;;30.25;28.37
70458;BME280;57919;56.194;95.716;2023-06-24T04:02:19;98542.75;;;29.95;27.73
70458;BME280;57919;56.194;95.716;2023-06-24T04:12:22;98520.25;;;29.19;28.30
70458;BME280;57919;56.194;95.716;2023-06-24T04:22:25;98526.91;;;30.11;27.58
70458;BME280;57919;56.194;95.716;2023-06-24T04:32:32;98506.19;;;30.68;27.22
70458;BME280;57919;56.194;95.716;2023-06-24T04:42:34;98495.88;;;28.84;28.50
70458;BME280;57919;56.194;95.716;2023-06-24T04:52:36;98490.19;;;28.63;28.30
70458;BME280;57919;56.194;95.716;2023-06-24T05:02:38;98478.94;;;28.48;29.96
70458;BME280;57919;56.194;95.716;2023-06-24T05:12:40;98478.69;;;29.02;29.66
70458;BME280;57919;56.194;95.716;2023-06-24T05:22:42;98465.75;;;29.53;28.63
70458;BME280;57919;56.194;95.716;2023-06-24T05:32:44;98459.22;;;29.12;27.64
70458;BME280;57919;56.194;95.716;2023-06-24T05:42:46;98441.22;;;29.45;27.77
70458;BME280;57919;56.194;95.716;2023-06-24T05:52:48;98440.94;;;30.28;27.87
70458;BME280;57919;56.194;95.716;2023-06-24T06:02:50;98428.94;;;29.56;27.37
70458;BME280;57919;56.194;95.716;2023-06-24T06:12:51;98409.72;;;28.62;28.61
70458;BME280;57919;56.194;95.716;2023-06-24T06:22:55;98409.47;;;28.21;29.39
70458;BME280;57919;56.194;95.716;2023-06-24T06:32:56;98402.97;;;28.48;28.88
70458;BME280;57919;56.194;95.716;2023-06-24T06:42:58;98383.78;;;28.51;29.47
70458;BME280;57919;56.194;95.716;2023-06-24T06:53:00;98371.34;;;28.17;27.98
70458;BME280;57919;56.194;95.716;2023-06-24T07:03:03;98356.72;;;27.20;29.16
70458;BME280;57919;56.194;95.716;2023-06-24T07:13:04;98349.66;;;27.40;29.12
70458;BME280;57919;56.194;95.716;2023-06-24T07:23:06;98325.53;;;28.24;27.51
70458;BME280;57919;56.194;95.716;2023-06-24T07:33:08;98328.16;;;28.56;27.23
70458;BME280;57919;56.194;95.716;2023-06-24T07:43:10;98313.22;;;27.31;28.99
70458;BME280;57919;56.194;95.716;2023-06-24T07:53:12;98302.09;;;26.99;28.86
70458;BME280;57919;56.194;95.716;2023-06-24T08:03:14;98301.03;;;27.05;29.17
70458;BME280;57919;56.194;95.716;2023-06-24T08:13:16;98288.94;;;26.89;27.79
70458;BME280;57919;56.194;95.716;2023-06-24T08:23:17;98260.16;;;26.68;28.64
70458;BME280;57919;56.194;95.716;2023-06-24T08:33:19;98268.84;;;27.41;27.45
70458;BME280;57919;56.194;95.716;2023-06-24T08:43:21;98257.75;;;27.09;26.79
70458;BME280;57919;56.194;95.716;2023-06-24T08:53:26;98260.88;;;26.86;25.94
70458;BME280;57919;56.194;95.716;2023-06-24T09:03:28;98250.56;;;26.81;25.38
70458;BME280;57919;56.194;95.716;2023-06-24T09:13:36;98238.94;;;26.84;24.87
70458;BME280;57919;56.194;95.716;2023-06-24T09:23:38;98248.31;;;26.51;25.00
70458;BME280;57919;56.194;95.716;2023-06-24T09:33:41;98235.06;;;26.58;25.85
70458;BME280;57919;56.194;95.716;2023-06-24T09:43:43;98225.03;;;26.52;24.79
70458;BME280;57919;56.194;95.716;2023-06-24T09:53:46;98214.25;;;26.88;25.04
70458;BME280;57919;56.194;95.716;2023-06-24T10:03:48;98217.56;;;26.85;24.65
70458;BME280;57919;56.194;95.716;2023-06-24T10:13:51;98203.56;;;26.43;25.21
70458;BME280;57919;56.194;95.716;2023-06-24T10:23:55;98197.47;;;25.70;25.18
70458;BME280;57919;56.194;95.716;2023-06-24T10:33:58;98194.97;;;25.52;25.74
70458;BME280;57919;56.194;95.716;2023-06-24T10:44:14;98204.09;;;25.30;26.19
70458;BME280;57919;56.194;95.716;2023-06-24T10:54:17;98210.06;;;25.22;26.45
70458;BME280;57919;56.194;95.716;2023-06-24T11:04:19;98203.72;;;25.05;26.72
70458;BME280;57919;56.194;95.716;2023-06-24T11:14:21;98191.63;;;25.11;27.47
70458;BME280;57919;56.194;95.716;2023-06-24T11:24:23;98195.66;;;25.03;27.68
70458;BME280;57919;56.194;95.716;2023-06-24T11:34:26;98182.16;;;24.57;27.43
70458;BME280;57919;56.194;95.716;2023-06-24T11:44:28;98185.59;;;24.47;28.15
70458;BME280;57919;56.194;95.716;2023-06-24T11:54:40;98188.69;;;24.22;27.85
70458;BME280;57919;56.194;95.716;2023-06-24T12:04:44;98188.75;;;23.18;36.77
70458;BME280;57919;56.194;95.716;2023-06-24T12:14:46;98191.84;;;22.75;38.52
70458;BME280;57919;56.194;95.716;2023-06-24T12:24:48;98177.06;;;22.46;40.91
70458;BME280;57919;56.194;95.716;2023-06-24T12:34:49;98165.88;;;22.30;41.71
70458;BME280;57919;56.194;95.716;2023-06-24T12:44:51;98162.75;;;22.26;41.96
70458;BME280;57919;56.194;95.716;2023-06-24T12:54:53;98175.91;;;22.12;42.70
70458;BME280;57919;56.194;95.716;2023-06-24T13:04:55;98165.41;;;21.73;45.00
70458;BME280;57919;56.194;95.716;2023-06-24T13:14:57;98154.91;;;21.51;45.89
70458;BME280;57919;56.194;95.716;2023-06-24T13:24:59;98145.72;;;21.21;47.42
70458;BME280;57919;56.194;95.716;2023-06-24T13:35:02;98147.09;;;20.93;48.26
70458;BME280;57919;56.194;95.716;2023-06-24T13:45:05;98157.50;;;20.67;49.05
70458;BME280;57919;56.194;95.716;2023-06-24T13:55:08;98153.47;;;20.44;49.24
70458;BME280;57919;56.194;95.716;2023-06-24T14:05:10;98150.69;;;20.19;49.59
70458;BME280;57919;56.194;95.716;2023-06-24T14:15:12;98149.03;;;19.87;50.52
70458;BME280;57919;56.194;95.716;2023-06-24T14:25:13;98164.94;;;19.72;51.04
70458;BME280;57919;56.194;95.716;2023-06-24T14:35:15;98165.28;;;19.37;52.14
70458;BME280;57919;56.194;95.716;2023-06-24T14:45:17;98164.31;;;19.12;52.47
70458;BME280;57919;56.194;95.716;2023-06-24T14:55:19;98158.94;;;18.79;53.27
70458;BME280;57919;56.194;95.716;2023-06-24T15:05:21;98163.34;;;18.60;53.24
70458;BME280;57919;56.194;95.716;2023-06-24T15:15:23;98150.28;;;18.49;52.93
70458;BME280;57919;56.194;95.716;2023-06-24T15:25:25;98138.94;;;18.38;52.95
70458;BME280;57919;56.194;95.716;2023-06-24T15:35:28;98138.50;;;18.35;52.55
70458;BME280;57919;56.194;95.716;2023-06-24T15:45:30;98119.75;;;18.25;53.12
70458;BME280;57919;56.194;95.716;2023-06-24T15:55:32;98121.25;;;18.21;53.10
70458;BME280;57919;56.194;95.716;2023-06-24T16:05:34;98119.13;;;18.10;53.43
70458;BME280;57919;56.194;95.716;2023-06-24T16:15:36;98091.34;;;17.87;54.05
70458;BME280;57919;56.194;95.716;2023-06-24T16:25:38;98099.53;;;17.80;54.45
70458;BME280;57919;56.194;95.716;2023-06-24T16:35:40;98091.31;;;17.67;55.00
70458;BME280;57919;56.194;95.716;2023-06-24T16:45:42;98094.41;;;17.57;55.96
70458;BME280;57919;56.194;95.716;2023-06-24T16:55:44;98093.53;;;17.43;56.27
70458;BME280;57919;56.194;95.716;2023-06-24T17:05:47;98076.25;;;17.30;56.66
70458;BME280;57919;56.194;95.716;2023-06-24T17:15:48;98085.28;;;17.24;57.43
70458;BME280;57919;56.194;95.716;2023-06-24T17:25:50;98086.69;;;17.00;57.80
70458;BME280;57919;56.194;95.716;2023-06-24T17:35:52;98074.34;;;16.69;58.42
70458;BME280;57919;56.194;95.716;2023-06-24T17:45:54;98065.56;;;16.46;59.71
70458;BME280;57919;56.194;95.716;2023-06-24T17:55:56;98049.66;;;16.22;60.62
70458;BME280;57919;56.194;95.716;2023-06-24T18:05:58;98064.16;;;16.22;60.45
70458;BME280;57919;56.194;95.716;2023-06-24T18:16:03;98066.41;;;16.12;60.07
70458;BME280;57919;56.194;95.716;2023-06-24T18:26:05;98062.31;;;15.73;60.45
70458;BME280;57919;56.194;95.716;2023-06-24T18:36:07;98035.56;;;15.41;62.22
70458;BME280;57919;56.194;95.716;2023-06-24T18:46:09;98035.47;;;15.56;63.33
70458;BME280;57919;56.194;95.716;2023-06-24T18:56:10;98022.97;;;15.61;63.62
70458;BME280;57919;56.194;95.716;2023-06-24T19:06:12;98029.34;;;15.68;62.80
70458;BME280;57919;56.194;95.716;2023-06-24T19:16:14;98019.63;;;15.59;62.93
70458;BME280;57919;56.194;95.716;2023-06-24T19:26:16;98001.75;;;15.35;63.80
70458;BME280;57919;56.194;95.716;2023-06-24T19:36:18;98007.91;;;15.23;64.08
70458;BME280;57919;56.194;95.716;2023-06-24T19:46:20;98007.19;;;15.14;64.44
70458;BME280;57919;56.194;95.716;2023-06-24T19:56:22;97997.22;;;15.00;65.05
70458;BME280;57919;56.194;95.716;2023-06-24T20:06:24;97997.53;;;14.90;65.30
70458;BME280;57919;56.194;95.716;2023-06-24T20:16:26;97971.63;;;14.79;66.21
70458;BME280;57919;56.194;95.716;2023-06-24T20:26:28;97961.41;;;14.81;66.57
70458;BME280;57919;56.194;95.716;2023-06-24T20:36:30;97971.06;;;14.84;67.36
70458;BME280;57919;56.194;95.716;2023-06-24T20:46:33;97974.69;;;14.91;66.62
70458;BME280;57919;56.194;95.716;2023-06-24T20:56:35;97971.53;;;14.88;66.19
70458;BME280;57919;56.194;95.716;2023-06-24T21:06:37;97979.94;;;14.71;66.34
70458;BME280;57919;56.194;95.716;2023-06-24T21:16:39;97985.88;;;14.60;66.78
70458;BME280;57919;56.194;95.716;2023-06-24T21:26:41;97973.97;;;14.46;66.95
70458;BME280;57919;56.194;95.716;2023-06-24T21:36:43;97963.09;;;14.46;68.74
70458;BME280;57919;56.194;95.716;2023-06-24T21:46:45;97975.16;;;14.95;67.77
70458;BME280;57919;56.194;95.716;2023-06-24T21:56:47;97967.28;;;15.70;65.89
70458;BME280;57919;56.194;95.716;2023-06-24T22:06:49;97965.25;;;15.79;65.40
70458;BME280;57919;56.194;95.716;2023-06-24T22:16:50;97981.91;;;16.25;64.70
70458;BME280;57919;56.194;95.716;2023-06-24T22:26:52;97993.31;;;16.42;63.86
70458;BME280;57919;56.194;95.716;2023-06-24T22:36:54;97991.19;;;16.78;63.47
70458;BME280;57919;56.194;95.716;2023-06-24T22:46:56;97964.13;;;16.90;63.11
70458;BME280;57919;56.194;95.716;2023-06-24T22:56:59;97951.88;;;16.73;64.84
70458;BME280;57919;56.194;95.716;2023-06-24T23:07:01;97952.53;;;16.82;64.73
70458;BME280;57919;56.194;95.716;2023-06-24T23:17:04;97939.16;;;17.20;64.01
70458;BME280;57919;56.194;95.716;2023-06-24T23:27:07;97933.91;;;17.58;63.31
70458;BME280;57919;56.194;95.716;2023-06-24T23:37:10;97942.31;;;17.96;62.56
70458;BME280;57919;56.194;95.716;2023-06-24T23:47:13;97948.34;;;18.24;61.82
70458;BME280;57919;56.194;95.716;2023-06-24T23:57:15;97961.19;;;20.19;58.56
